createdAt,value
2017-08-26T00:00:28.946Z,22.83
2017-08-26T00:03:04.297Z,22.77
2017-08-26T00:05:35.984Z,22.72
2017-08-26T00:08:07.624Z,22.69
2017-08-26T00:10:39.446Z,22.70
2017-08-26T00:13:10.746Z,22.68
2017-08-26T00:18:08.496Z,22.67
2017-08-26T00:20:39.817Z,22.71
2017-08-26T00:23:11.569Z,22.74
2017-08-26T00:25:42.929Z,22.76
2017-08-26T00:28:15.257Z,22.75
2017-08-26T00:30:47.031Z,22.74
2017-08-26T00:33:18.429Z,22.73
2017-08-26T00:35:49.752Z,22.74
2017-08-26T00:38:23.577Z,22.72
2017-08-26T00:40:54.959Z,22.73
2017-08-26T00:43:26.876Z,22.68
2017-08-26T00:45:58.454Z,22.67
2017-08-26T00:48:30.037Z,22.64
2017-08-26T00:51:01.952Z,22.63
2017-08-26T00:53:34.272Z,22.61
2017-08-26T00:56:11.336Z,22.57
2017-08-26T00:58:43.282Z,22.56
2017-08-26T01:01:14.600Z,22.54
2017-08-26T01:03:45.939Z,22.50
2017-08-26T01:06:17.446Z,22.46
2017-08-26T01:08:48.754Z,22.43
2017-08-26T01:11:21.797Z,22.41
2017-08-26T01:13:53.393Z,22.38
2017-08-26T01:16:26.323Z,22.40
2017-08-26T01:18:57.987Z,22.55
2017-08-26T01:21:29.768Z,22.77
2017-08-26T01:24:01.989Z,22.87
2017-08-26T01:26:33.329Z,22.92
2017-08-26T01:29:04.810Z,22.84
2017-08-26T01:31:36.471Z,22.85
2017-08-26T01:34:07.855Z,22.99
2017-08-26T01:36:39.217Z,23.09
2017-08-26T01:39:11.084Z,23.04
2017-08-26T01:41:42.422Z,22.90
2017-08-26T01:44:14.820Z,22.77
2017-08-26T01:46:46.171Z,22.69
2017-08-26T01:49:17.504Z,22.64
2017-08-26T01:51:49.118Z,22.61
2017-08-26T01:54:20.530Z,22.55
2017-08-26T01:56:51.873Z,22.48
2017-08-26T01:59:24.975Z,22.44
2017-08-26T02:01:56.350Z,22.45
2017-08-26T02:04:28.144Z,22.47
2017-08-26T02:06:59.450Z,22.44
2017-08-26T02:09:30.792Z,22.42
2017-08-26T02:12:04.428Z,22.38
2017-08-26T02:14:35.760Z,22.31
2017-08-26T02:17:07.151Z,22.21
2017-08-26T02:19:39.142Z,22.17
2017-08-26T02:22:10.501Z,22.14
2017-08-26T02:24:42.118Z,22.08
2017-08-26T02:27:13.474Z,22.04
2017-08-26T02:29:44.787Z,21.95
2017-08-26T02:32:17.150Z,21.91
2017-08-26T02:34:48.460Z,21.91
2017-08-26T02:37:20.121Z,21.92
2017-08-26T02:39:51.920Z,21.84
2017-08-26T02:42:24.539Z,21.75
2017-08-26T02:44:55.877Z,21.71
2017-08-26T02:47:27.748Z,21.64
2017-08-26T02:49:59.390Z,21.59
2017-08-26T02:52:30.708Z,21.60
2017-08-26T02:55:02.458Z,21.60
2017-08-26T02:57:33.765Z,21.61
2017-08-26T03:00:06.752Z,21.64
2017-08-26T03:02:38.101Z,21.61
2017-08-26T03:05:09.436Z,21.60
2017-08-26T03:07:41.232Z,21.58
2017-08-26T03:10:12.744Z,21.57
2017-08-26T03:12:44.366Z,21.56
2017-08-26T03:15:15.685Z,21.53
2017-08-26T03:17:47.427Z,21.52
2017-08-26T03:20:19.275Z,21.54
2017-08-26T03:22:50.645Z,21.55
2017-08-26T03:25:23.385Z,21.50
2017-08-26T03:27:54.707Z,21.46
2017-08-26T03:30:26.818Z,21.46
2017-08-26T03:32:58.292Z,21.44
2017-08-26T03:35:29.802Z,21.48
2017-08-26T03:38:03.434Z,21.51
2017-08-26T03:40:34.827Z,21.50
2017-08-26T03:43:06.138Z,21.49
2017-08-26T03:45:37.907Z,21.45
2017-08-26T03:48:09.978Z,21.35
2017-08-26T03:50:41.626Z,21.25
2017-08-26T03:53:13.202Z,21.24
2017-08-26T03:55:49.511Z,21.28
2017-08-26T03:58:21.361Z,21.24
2017-08-26T04:00:53.142Z,21.23
2017-08-26T04:03:25.801Z,21.28
2017-08-26T04:05:57.216Z,21.34
2017-08-26T04:08:28.915Z,21.35
2017-08-26T04:11:00.212Z,21.36
2017-08-26T04:13:31.860Z,21.36
2017-08-26T04:16:05.996Z,21.34
2017-08-26T04:18:37.504Z,21.27
2017-08-26T04:21:10.520Z,21.23
2017-08-26T04:23:41.906Z,21.22
2017-08-26T04:26:13.668Z,21.24
2017-08-26T04:28:59.323Z,21.25
2017-08-26T04:31:30.917Z,21.24
2017-08-26T04:34:03.346Z,21.24
2017-08-26T04:36:34.958Z,21.22
2017-08-26T04:39:06.653Z,21.22
2017-08-26T04:41:37.954Z,21.22
2017-08-26T04:44:09.276Z,21.21
2017-08-26T04:46:40.949Z,21.22
2017-08-26T04:49:12.247Z,21.35
2017-08-26T04:51:45.460Z,21.47
2017-08-26T04:54:17.088Z,21.56
2017-08-26T04:56:48.799Z,21.63
2017-08-26T04:59:20.233Z,21.69
2017-08-26T05:01:51.561Z,21.74
2017-08-26T05:04:24.413Z,21.75
2017-08-26T05:06:55.924Z,21.80
2017-08-26T05:09:27.535Z,21.82
2017-08-26T05:11:58.896Z,21.85
2017-08-26T05:14:30.224Z,21.89
2017-08-26T05:17:02.291Z,21.89
2017-08-26T05:19:33.620Z,21.87
2017-08-26T05:22:07.403Z,21.88
2017-08-26T05:24:39.008Z,21.98
2017-08-26T05:27:10.336Z,22.02
2017-08-26T05:29:41.653Z,22.00
2017-08-26T05:32:14.995Z,21.98
2017-08-26T05:34:46.704Z,22.05
2017-08-26T05:37:18.012Z,22.11
2017-08-26T05:39:49.692Z,22.23
2017-08-26T05:42:21.669Z,22.30
2017-08-26T05:44:52.997Z,22.32
2017-08-26T05:47:25.478Z,22.33
2017-08-26T05:49:56.781Z,22.34
2017-08-26T05:52:28.804Z,22.35
2017-08-26T05:55:00.134Z,22.37
2017-08-26T05:57:31.638Z,22.30
2017-08-26T06:00:04.610Z,22.33
2017-08-26T06:02:36.176Z,22.44
2017-08-26T06:05:07.528Z,22.55
2017-08-26T06:07:38.877Z,22.49
2017-08-26T06:10:10.758Z,22.68
2017-08-26T06:12:42.485Z,22.92
2017-08-26T06:15:13.803Z,23.07
2017-08-26T06:17:45.140Z,23.15
2017-08-26T06:20:16.947Z,23.13
2017-08-26T06:22:48.578Z,23.16
2017-08-26T06:25:20.035Z,23.25
2017-08-26T06:27:51.347Z,23.26
2017-08-26T06:30:23.883Z,23.19
2017-08-26T06:32:55.665Z,23.18
2017-08-26T06:35:27.499Z,23.19
2017-08-26T06:37:58.823Z,23.24
2017-08-26T06:40:30.428Z,23.36
2017-08-26T06:43:02.152Z,23.40
2017-08-26T06:45:33.448Z,23.46
2017-08-26T06:48:07.748Z,23.48
2017-08-26T06:50:39.047Z,23.53
2017-08-26T06:53:11.116Z,23.70
2017-08-26T06:55:42.445Z,23.94
2017-08-26T06:58:14.320Z,24.08
2017-08-26T07:00:46.047Z,24.25
2017-08-26T07:03:17.372Z,24.39
2017-08-26T07:05:49.373Z,24.35
2017-08-26T07:08:22.033Z,24.51
2017-08-26T07:10:53.415Z,24.74
2017-08-26T07:13:26.865Z,24.90
2017-08-26T07:15:58.226Z,25.02
2017-08-26T07:18:29.579Z,25.13
2017-08-26T07:21:01.376Z,25.22
2017-08-26T07:23:33.055Z,25.30
2017-08-26T07:26:05.994Z,25.50
2017-08-26T07:28:37.378Z,25.71
2017-08-26T07:31:08.720Z,25.89
2017-08-26T07:33:40.351Z,26.04
2017-08-26T07:36:12.112Z,26.24
2017-08-26T07:38:43.630Z,26.35
2017-08-26T07:41:15.386Z,26.31
2017-08-26T07:43:46.736Z,26.33
2017-08-26T07:46:19.452Z,26.11
2017-08-26T07:48:50.823Z,26.20
2017-08-26T07:51:23.538Z,26.07
2017-08-26T07:53:55.245Z,25.93
2017-08-26T07:56:27.734Z,25.82
2017-08-26T07:58:59.069Z,25.86
2017-08-26T08:01:30.884Z,25.72
2017-08-26T08:04:03.450Z,25.93
2017-08-26T08:06:35.077Z,25.92
2017-08-26T08:09:06.415Z,25.98
2017-08-26T08:11:37.920Z,25.90
2017-08-26T08:14:11.608Z,25.99
2017-08-26T08:16:42.997Z,26.13
2017-08-26T08:19:14.609Z,26.27
2017-08-26T08:21:46.066Z,26.48
2017-08-26T08:24:18.309Z,26.60
2017-08-26T08:26:50.029Z,26.70
2017-08-26T08:29:23.818Z,26.98
2017-08-26T08:31:55.435Z,27.10
2017-08-26T08:34:28.497Z,27.28
2017-08-26T08:37:00.362Z,27.08
2017-08-26T08:39:31.675Z,27.02
2017-08-26T08:42:03.827Z,27.13
2017-08-26T08:44:36.579Z,27.22
2017-08-26T08:47:11.076Z,27.24
2017-08-26T08:49:44.035Z,27.30
2017-08-26T08:52:16.527Z,26.91
2017-08-26T08:54:48.200Z,26.87
2017-08-26T08:57:19.702Z,27.15
2017-08-26T08:59:51.043Z,27.57
2017-08-26T09:02:24.289Z,27.81
2017-08-26T09:04:55.633Z,27.60
2017-08-26T09:07:28.342Z,27.74
2017-08-26T09:10:00.144Z,27.95
2017-08-26T09:12:31.581Z,27.77
2017-08-26T09:15:03.549Z,27.89
2017-08-26T09:17:35.314Z,28.01
2017-08-26T09:20:07.080Z,28.22
2017-08-26T09:22:38.529Z,28.37
2017-08-26T09:25:10.191Z,28.59
2017-08-26T09:27:41.520Z,28.75
2017-08-26T09:30:13.448Z,28.94
2017-08-26T09:32:44.972Z,28.98
2017-08-26T09:35:16.353Z,29.29
2017-08-26T09:37:48.256Z,29.42
2017-08-26T09:40:19.879Z,29.83
2017-08-26T09:42:51.265Z,29.67
2017-08-26T09:45:24.480Z,29.72
2017-08-26T09:47:55.831Z,29.52
2017-08-26T09:50:28.462Z,29.99
2017-08-26T09:53:00.922Z,30.43
2017-08-26T09:55:32.354Z,30.83
2017-08-26T09:58:05.406Z,30.77
2017-08-26T10:00:36.735Z,30.90
2017-08-26T10:03:08.062Z,30.78
2017-08-26T10:05:39.706Z,30.84
2017-08-26T10:08:12.360Z,31.02
2017-08-26T10:10:43.733Z,31.09
2017-08-26T10:13:15.549Z,31.28
2017-08-26T10:15:47.165Z,31.65
2017-08-26T10:18:19.348Z,31.70
2017-08-26T10:20:51.125Z,31.81
2017-08-26T10:23:25.148Z,31.89
2017-08-26T10:25:56.878Z,32.30
2017-08-26T10:28:28.294Z,32.28
2017-08-26T10:30:59.747Z,32.31
2017-08-26T10:33:31.720Z,32.31
2017-08-26T10:36:04.878Z,32.54
2017-08-26T10:38:36.452Z,32.72
2017-08-26T10:41:08.237Z,32.71
2017-08-26T10:43:39.760Z,32.84
2017-08-26T10:46:12.686Z,33.39
2017-08-26T10:48:44.096Z,33.54
2017-08-26T10:51:15.535Z,33.15
2017-08-26T10:53:47.958Z,33.14
2017-08-26T10:56:21.049Z,33.67
2017-08-26T10:58:52.436Z,34.28
2017-08-26T11:01:25.505Z,34.19
2017-08-26T11:03:56.899Z,34.33
2017-08-26T11:06:28.524Z,34.51
2017-08-26T11:08:59.941Z,34.87
2017-08-26T11:11:31.475Z,35.21
2017-08-26T11:14:05.288Z,35.47
2017-08-26T11:16:37.166Z,35.71
2017-08-26T11:19:08.604Z,35.76
2017-08-26T11:21:40.305Z,35.73
2017-08-26T11:24:12.030Z,35.91
2017-08-26T11:26:43.773Z,35.69
2017-08-26T11:29:15.180Z,36.03
2017-08-26T11:31:46.561Z,36.09
2017-08-26T11:34:18.269Z,35.35
2017-08-26T11:36:49.702Z,36.07
2017-08-26T11:39:22.054Z,36.60
2017-08-26T11:41:53.924Z,37.04
2017-08-26T11:44:27.494Z,37.16
2017-08-26T11:46:59.515Z,37.74
2017-08-26T11:49:30.902Z,37.12
2017-08-26T11:52:03.608Z,36.87
2017-08-26T11:54:35.285Z,37.30
2017-08-26T11:57:06.692Z,38.02
2017-08-26T11:59:38.124Z,39.10
2017-08-26T12:02:10.129Z,41.26
2017-08-26T12:04:41.472Z,43.76
2017-08-26T12:07:12.810Z,44.99
2017-08-26T12:09:44.170Z,43.40
2017-08-26T12:12:16.914Z,44.84
2017-08-26T12:14:51.649Z,46.07
2017-08-26T12:17:25.767Z,46.91
2017-08-26T12:19:57.244Z,46.12
2017-08-26T12:22:29.688Z,46.79
2017-08-26T12:25:01.646Z,46.01
2017-08-26T12:27:33.297Z,46.59
2017-08-26T12:30:06.412Z,47.62
2017-08-26T12:32:37.899Z,49.24
2017-08-26T12:35:09.630Z,48.23
2017-08-26T12:37:42.415Z,46.83
2017-08-26T12:40:14.751Z,46.49
2017-08-26T12:42:47.606Z,43.77
2017-08-26T12:45:19.308Z,40.68
2017-08-26T12:47:50.851Z,39.91
2017-08-26T12:50:22.960Z,40.79
2017-08-26T12:53:57.091Z,40.13
2017-08-26T12:56:28.676Z,38.38
2017-08-26T12:59:00.070Z,37.36
2017-08-26T13:01:31.844Z,38.78
2017-08-26T13:04:06.910Z,43.26
2017-08-26T13:06:38.583Z,46.31
2017-08-26T13:09:10.316Z,48.34
2017-08-26T13:11:41.673Z,50.39
2017-08-26T13:14:14.291Z,50.69
2017-08-26T13:16:45.692Z,50.53
2017-08-26T13:19:20.452Z,48.83
2017-08-26T13:21:52.220Z,48.44
2017-08-26T13:24:25.300Z,50.63
2017-08-26T13:26:56.903Z,52.48
2017-08-26T13:29:29.943Z,52.52
2017-08-26T13:32:03.326Z,50.67
2017-08-26T13:34:34.935Z,49.90
2017-08-26T13:37:06.284Z,49.51
2017-08-26T13:39:37.604Z,49.03
2017-08-26T13:42:09.376Z,47.61
2017-08-26T13:44:40.691Z,49.26
2017-08-26T13:47:12.056Z,47.66
2017-08-26T13:49:43.670Z,44.46
2017-08-26T13:52:15.797Z,45.28
2017-08-26T13:54:47.396Z,48.04
2017-08-26T13:57:18.803Z,48.80
2017-08-26T13:59:50.451Z,49.13
2017-08-26T14:02:22.293Z,50.25
2017-08-26T14:04:53.926Z,48.14
2017-08-26T14:07:26.648Z,47.91
2017-08-26T14:09:57.948Z,48.64
2017-08-26T14:12:29.469Z,49.55
2017-08-26T14:15:01.128Z,50.11
2017-08-26T14:17:32.580Z,50.94
2017-08-26T14:20:05.837Z,49.90
2017-08-26T14:22:37.583Z,49.87
2017-08-26T14:25:08.948Z,50.21
2017-08-26T14:27:40.542Z,50.42
2017-08-26T14:30:13.400Z,50.76
2017-08-26T14:32:44.714Z,51.31
2017-08-26T14:35:16.349Z,48.88
2017-08-26T14:37:47.689Z,48.35
2017-08-26T14:40:20.478Z,49.61
2017-08-26T14:42:53.075Z,49.41
2017-08-26T14:45:26.510Z,50.68
2017-08-26T14:47:57.912Z,50.25
2017-08-26T14:50:29.622Z,51.28
2017-08-26T14:55:56.594Z,50.91
2017-08-26T14:58:28.914Z,50.87
2017-08-26T15:01:00.345Z,50.66
2017-08-26T15:03:31.993Z,52.04
2017-08-26T15:06:04.928Z,51.40
2017-08-26T15:08:36.570Z,49.98
2017-08-26T15:11:08.377Z,47.42
2017-08-26T15:13:39.721Z,48.24
2017-08-26T15:16:12.608Z,49.17
2017-08-26T15:18:44.015Z,49.89
2017-08-26T15:21:15.375Z,49.38
2017-08-26T15:23:47.006Z,50.17
2017-08-26T15:26:18.497Z,50.12
2017-08-26T15:28:49.962Z,49.42
2017-08-26T15:31:21.284Z,48.80
2017-08-26T15:33:52.578Z,49.39
2017-08-26T15:36:27.359Z,49.51
2017-08-26T15:38:58.763Z,49.87
2017-08-26T15:41:30.366Z,49.96
2017-08-26T15:44:01.793Z,48.59
2017-08-26T15:46:33.103Z,48.24
2017-08-26T15:49:04.879Z,48.71
2017-08-26T15:51:36.241Z,48.22
2017-08-26T15:54:08.395Z,47.39
2017-08-26T15:56:40.043Z,46.56
2017-08-26T16:02:12.138Z,45.08
2017-08-26T16:04:43.614Z,45.35
2017-08-26T16:07:15.304Z,45.56
2017-08-26T16:09:46.617Z,45.47
2017-08-26T16:12:20.109Z,45.81
2017-08-26T16:14:52.728Z,44.94
2017-08-26T16:17:24.552Z,43.52
2017-08-26T16:19:56.304Z,43.04
2017-08-26T16:22:28.843Z,42.27
2017-08-26T16:25:00.142Z,41.29
2017-08-26T16:27:31.895Z,40.97
2017-08-26T16:30:05.807Z,40.63
2017-08-26T16:32:37.518Z,39.92
2017-08-26T16:35:09.108Z,39.45
2017-08-26T16:37:40.654Z,39.33
2017-08-26T16:40:19.272Z,39.19
2017-08-26T16:42:50.635Z,38.91
2017-08-26T16:45:22.460Z,37.83
2017-08-26T16:47:54.121Z,37.62
2017-08-26T16:50:26.126Z,37.42
2017-08-26T16:52:57.871Z,37.00
2017-08-26T16:55:29.816Z,36.52
2017-08-26T16:58:02.963Z,36.01
2017-08-26T17:00:34.324Z,35.42
2017-08-26T17:03:05.736Z,35.17
2017-08-26T17:05:37.067Z,34.91
2017-08-26T17:08:11.886Z,34.37
2017-08-26T17:10:43.207Z,34.09
2017-08-26T17:13:14.517Z,33.83
2017-08-26T17:15:46.119Z,33.64
2017-08-26T17:18:18.426Z,33.44
2017-08-26T17:20:49.782Z,33.21
2017-08-26T17:23:21.452Z,33.01
2017-08-26T17:25:52.747Z,32.79
2017-08-26T17:28:25.068Z,32.57
2017-08-26T17:30:56.443Z,32.20
2017-08-26T17:33:28.783Z,31.76
2017-08-26T17:36:00.383Z,31.53
2017-08-26T17:38:31.713Z,31.25
2017-08-26T17:41:03.628Z,31.13
2017-08-26T17:43:35.221Z,31.08
2017-08-26T17:46:06.719Z,31.06
2017-08-26T17:48:38.249Z,30.95
2017-08-26T17:51:09.607Z,30.87
2017-08-26T17:53:41.190Z,30.81
2017-08-26T17:56:14.258Z,30.63
2017-08-26T17:58:45.586Z,30.57
2017-08-26T18:01:16.923Z,30.54
2017-08-26T18:03:48.575Z,30.47
2017-08-26T18:06:21.677Z,30.35
2017-08-26T18:08:53.021Z,30.24
2017-08-26T18:11:25.301Z,30.13
2017-08-26T18:13:56.651Z,30.05
2017-08-26T18:16:29.191Z,29.99
2017-08-26T18:19:00.749Z,29.93
2017-08-26T18:21:32.415Z,29.82
2017-08-26T18:24:06.163Z,29.72
2017-08-26T18:26:37.958Z,29.64
2017-08-26T18:29:09.323Z,29.60
2017-08-26T18:31:40.671Z,29.58
2017-08-26T18:34:15.631Z,29.57
2017-08-26T18:36:46.991Z,29.55
2017-08-26T18:39:18.617Z,29.51
2017-08-26T18:41:49.958Z,29.43
2017-08-26T18:44:22.190Z,29.37
2017-08-26T18:46:53.872Z,29.32
2017-08-26T18:49:26.655Z,29.29
2017-08-26T18:51:57.963Z,29.28
2017-08-26T18:54:29.683Z,29.24
2017-08-26T18:57:01.573Z,29.22
2017-08-26T18:59:32.929Z,29.17
2017-08-26T19:02:05.992Z,29.14
2017-08-26T19:04:37.510Z,29.10
2017-08-26T19:07:09.089Z,29.10
2017-08-26T19:09:40.396Z,29.02
2017-08-26T19:12:12.521Z,28.98
2017-08-26T19:14:44.370Z,28.94
2017-08-26T19:17:15.669Z,28.95
2017-08-26T19:19:47.072Z,28.91
2017-08-26T19:22:18.645Z,28.89
2017-08-26T19:24:50.045Z,28.83
2017-08-26T19:27:21.812Z,28.79
2017-08-26T19:29:53.136Z,28.76
2017-08-26T19:32:25.634Z,28.80
2017-08-26T19:34:57.295Z,28.78
2017-08-26T19:37:29.191Z,28.78
2017-08-26T19:40:01.573Z,28.70
2017-08-26T19:42:32.872Z,28.64
2017-08-26T19:45:04.366Z,28.64
2017-08-26T19:47:36.426Z,28.58
2017-08-26T19:50:07.897Z,28.53
2017-08-26T19:52:39.230Z,28.53
2017-08-26T19:55:10.912Z,28.47
2017-08-26T19:57:42.295Z,28.41
2017-08-26T20:00:15.181Z,28.41
2017-08-26T20:02:46.914Z,28.36
2017-08-26T20:05:18.289Z,28.33
2017-08-26T20:07:49.877Z,28.33
2017-08-26T20:10:23.306Z,28.30
2017-08-26T20:12:54.767Z,28.25
2017-08-26T20:15:27.808Z,28.25
2017-08-26T20:17:59.194Z,28.24
2017-08-26T20:20:30.995Z,28.23
2017-08-26T20:23:03.000Z,28.16
2017-08-26T20:25:34.384Z,28.20
2017-08-26T20:28:08.958Z,28.23
2017-08-26T20:30:40.363Z,28.20
2017-08-26T20:33:11.736Z,28.14
2017-08-26T20:35:43.443Z,28.08
2017-08-26T20:38:16.542Z,28.04
2017-08-26T20:40:47.867Z,28.04
2017-08-26T20:43:19.167Z,28.00
2017-08-26T20:45:50.547Z,28.07
2017-08-26T20:48:22.168Z,28.06
2017-08-26T20:50:53.524Z,28.04
2017-08-26T20:53:25.864Z,28.08
2017-08-26T20:55:57.811Z,28.06
2017-08-26T21:01:06.476Z,27.98
2017-08-26T21:03:37.916Z,27.89
2017-08-26T21:06:13.476Z,27.92
2017-08-26T21:08:45.315Z,27.83
2017-08-26T21:11:16.649Z,27.83
2017-08-26T21:13:48.026Z,27.75
2017-08-26T21:19:00.107Z,27.64
2017-08-26T21:21:32.545Z,27.61
2017-08-26T21:24:07.125Z,27.53
2017-08-26T21:26:38.904Z,27.53
2017-08-26T21:29:10.327Z,27.53
2017-08-26T21:31:42.098Z,27.50
2017-08-26T21:34:14.064Z,27.50
2017-08-26T21:36:45.662Z,27.53
2017-08-26T21:39:17.380Z,27.52
2017-08-26T21:41:48.765Z,27.51
2017-08-26T21:44:20.647Z,27.41
2017-08-26T21:46:51.993Z,27.36
2017-08-26T21:49:24.362Z,27.28
2017-08-26T21:51:56.221Z,27.26
2017-08-26T21:54:28.776Z,27.19
2017-08-26T21:57:00.593Z,27.10
2017-08-26T21:59:32.442Z,27.03
2017-08-26T22:02:20.227Z,26.97
2017-08-26T22:04:51.795Z,26.91
2017-08-26T22:07:23.741Z,26.85
2017-08-26T22:09:56.023Z,26.80
2017-08-26T22:12:28.357Z,26.80
2017-08-26T22:15:00.248Z,26.78
2017-08-26T22:17:33.272Z,26.75
2017-08-26T22:20:07.975Z,26.71
2017-08-26T22:22:39.951Z,26.64
2017-08-26T22:25:11.595Z,26.56
2017-08-26T22:27:44.332Z,26.49
2017-08-26T22:30:18.792Z,26.41
2017-08-26T22:32:51.026Z,26.36
2017-08-26T22:35:23.101Z,26.27
2017-08-26T22:37:54.831Z,26.22
2017-08-26T22:40:29.947Z,26.16
2017-08-26T22:43:02.428Z,26.16
2017-08-26T22:45:34.049Z,26.16
2017-08-26T22:48:07.075Z,26.16
2017-08-26T22:50:38.873Z,26.21
2017-08-26T22:53:11.447Z,26.23
2017-08-26T22:55:43.549Z,26.29
2017-08-26T22:58:15.404Z,26.26
2017-08-26T23:00:46.961Z,26.28
2017-08-26T23:03:18.971Z,26.28
2017-08-26T23:05:50.642Z,26.32
2017-08-26T23:08:23.375Z,26.43
2017-08-26T23:10:56.765Z,26.40
2017-08-26T23:13:29.838Z,26.38
2017-08-26T23:16:04.247Z,26.34
2017-08-26T23:21:02.458Z,26.30
2017-08-26T23:23:36.325Z,26.24
2017-08-26T23:26:10.360Z,26.27
2017-08-26T23:28:42.704Z,26.23
2017-08-26T23:31:14.719Z,26.21
2017-08-26T23:33:46.465Z,26.24
2017-08-26T23:36:19.323Z,26.27
2017-08-26T23:38:53.196Z,26.27
2017-08-26T23:41:26.379Z,26.33
2017-08-26T23:43:58.007Z,26.30
2017-08-26T23:46:31.153Z,26.29
2017-08-26T23:49:03.414Z,26.27
2017-08-26T23:51:35.025Z,26.30
2017-08-26T23:54:08.494Z,26.30
2017-08-26T23:56:40.041Z,26.27
2017-08-26T23:59:11.925Z,26.24
